Elmendorf Air Force Base
PAED : now visible

Airfield :











YOU CAN JOIN US ON...

 
LOGIN :

Register | Disclaimer

   EN    FR    IT 

 









Legend :    VFR   Marginal VFR   IFR   Intensive IFR   Very Intensive IFR
Visi :
Ceiling :
>= 8 km
>= 3000ft
5 to 8 km
1000 to 3000 ft
1500m to 5 km
500 to 1000 ft
800 to 1500m
200 to 500 ft
< 800m
< 200 ft
Symbols :   Thunderstorms  Fog  Heavy snow  Heavy precipitations  Wind > 20 kt






- Airport Elevation : 212 ft
- IATA code : EDF


PAED - Elmendorf Air Force Base

CURRENT METAR :
  • 241756Z 00000KT 10SM CLR M17/M20 A3043 RMK AO2A SLP305 T11741196 11128 21175 52012

EXPIRED METARs :
  • 241656Z 35005KT 10SM CLR M16/M18 A3042 RMK AO2A SLP302 T11561179
  • 241556Z 35009KT 10SM CLR M16/M18 A3040 RMK AO2A SLP295 T11571177

TAF TAF PAED
Valid from the 24 at 11:00 until the 25 at 17:00 UTC


241100Z 2411/2517 VRB06KT 9999 SKC QNH3034INS
BECMG 2500/2501 02009KT 9999 SKC QNH2990INS TXM11/2500Z TNM26/2417Z



MET'MAP, your aeronautical weather chart ! - Copyright ORBIFLY December 2007 - Disclaimer

ORBIFLY MET'MAP TEAM :

Programming & Development : Alexandra Zaïnal
Concept & original design : Baudouin d'Aumeries
Assistance for programming : Marc-Olivier Méhu
Technical & hardware support : Manuel Goepfert

Contact : metmap@orbifly.com




SOURCES & CREDITS :

   NOAA       Earth
Advisory